Terminal Aerodrome Forecast
Issued by NWS Cleveland, OH

Home | Current Version | Previous Version | Graphics & Text | Print | Product List | Glossary Off
Versions: 1 2 3 4 5 6 7 8 9 10 11 12 13 14 15 16 17 18 19

000
FTUS41 KCLE 201500 AAA
TAFCAK
TAF AMD
KCAK 201507Z 2015/2112 24015G25KT P6SM BKN035
     FM202300 25012KT P6SM OVC040
     FM210400 27010KT P6SM -SHSN BKN035=

USA.gov is the U.S. government's official web portal to all federal, state and local government web resources and services.